sensor_id;sensor_type;location;lat;lon;timestamp;temperature;humidity
24158;DHT22;12316;50.904;4.200;2022-12-18T00:02:06;-2.50;99.90
24158;DHT22;12316;50.904;4.200;2022-12-18T00:04:32;-2.60;99.90
24158;DHT22;12316;50.904;4.200;2022-12-18T00:06:58;-2.60;99.90
24158;DHT22;12316;50.904;4.200;2022-12-18T00:09:23;-2.60;99.90
24158;DHT22;12316;50.904;4.200;2022-12-18T00:11:49;-2.60;99.90
24158;DHT22;12316;50.904;4.200;2022-12-18T00:14:15;-2.50;99.90
24158;DHT22;12316;50.904;4.200;2022-12-18T00:16:44;-2.50;99.90
24158;DHT22;12316;50.904;4.200;2022-12-18T00:19:10;-2.50;99.90
24158;DHT22;12316;50.904;4.200;2022-12-18T00:21:36;-2.40;99.90
24158;DHT22;12316;50.904;4.200;2022-12-18T00:24:02;-2.40;99.90
24158;DHT22;12316;50.904;4.200;2022-12-18T00:26:32;-2.40;99.90
24158;DHT22;12316;50.904;4.200;2022-12-18T00:29:07;-2.40;99.90
24158;DHT22;12316;50.904;4.200;2022-12-18T00:31:33;-2.40;99.90
24158;DHT22;12316;50.904;4.200;2022-12-18T00:33:59;-2.50;99.90
24158;DHT22;12316;50.904;4.200;2022-12-18T00:36:28;-2.50;99.90
24158;DHT22;12316;50.904;4.200;2022-12-18T00:38:55;-2.60;99.90
24158;DHT22;12316;50.904;4.200;2022-12-18T00:41:21;-2.70;99.90
24158;DHT22;12316;50.904;4.200;2022-12-18T00:44:07;-2.70;99.90
24158;DHT22;12316;50.904;4.200;2022-12-18T00:46:34;-2.80;99.90
24158;DHT22;12316;50.904;4.200;2022-12-18T00:49:00;-2.80;99.90
24158;DHT22;12316;50.904;4.200;2022-12-18T00:51:25;-2.90;99.90
24158;DHT22;12316;50.904;4.200;2022-12-18T00:53:52;-2.90;99.90
24158;DHT22;12316;50.904;4.200;2022-12-18T00:56:21;-2.80;99.90
24158;DHT22;12316;50.904;4.200;2022-12-18T00:58:47;-2.90;99.90
24158;DHT22;12316;50.904;4.200;2022-12-18T01:01:13;-2.90;99.90
24158;DHT22;12316;50.904;4.200;2022-12-18T01:03:38;-3.00;99.90
24158;DHT22;12316;50.904;4.200;2022-12-18T01:06:08;-3.10;99.90
24158;DHT22;12316;50.904;4.200;2022-12-18T01:08:34;-3.10;99.90
24158;DHT22;12316;50.904;4.200;2022-12-18T01:11:01;-3.10;99.90
24158;DHT22;12316;50.904;4.200;2022-12-18T01:13:27;-3.10;99.90
24158;DHT22;12316;50.904;4.200;2022-12-18T01:15:52;-3.10;99.90
24158;DHT22;12316;50.904;4.200;2022-12-18T01:18:18;-3.10;99.90
24158;DHT22;12316;50.904;4.200;2022-12-18T01:20:43;-3.20;99.90
24158;DHT22;12316;50.904;4.200;2022-12-18T01:23:09;-3.20;99.90
24158;DHT22;12316;50.904;4.200;2022-12-18T01:25:38;-3.20;99.90
24158;DHT22;12316;50.904;4.200;2022-12-18T01:28:05;-3.20;99.90
24158;DHT22;12316;50.904;4.200;2022-12-18T01:30:30;-3.20;99.90
24158;DHT22;12316;50.904;4.200;2022-12-18T01:32:56;-3.30;99.90
24158;DHT22;12316;50.904;4.200;2022-12-18T01:35:22;-3.30;99.90
24158;DHT22;12316;50.904;4.200;2022-12-18T01:37:47;-3.30;99.90
24158;DHT22;12316;50.904;4.200;2022-12-18T01:40:13;-3.30;99.90
24158;DHT22;12316;50.904;4.200;2022-12-18T01:42:39;-3.30;99.90
24158;DHT22;12316;50.904;4.200;2022-12-18T01:45:25;-3.30;99.90
24158;DHT22;12316;50.904;4.200;2022-12-18T01:48:03;-3.30;99.90
24158;DHT22;12316;50.904;4.200;2022-12-18T01:50:39;-3.30;99.90
24158;DHT22;12316;50.904;4.200;2022-12-18T01:53:14;-3.30;99.90
24158;DHT22;12316;50.904;4.200;2022-12-18T01:55:45;-3.40;99.90
24158;DHT22;12316;50.904;4.200;2022-12-18T01:58:12;-3.40;99.90
24158;DHT22;12316;50.904;4.200;2022-12-18T02:00:37;-3.40;99.90
24158;DHT22;12316;50.904;4.200;2022-12-18T02:03:03;-3.40;99.90
24158;DHT22;12316;50.904;4.200;2022-12-18T02:06:05;-3.40;99.90
24158;DHT22;12316;50.904;4.200;2022-12-18T02:08:53;-3.40;99.90
24158;DHT22;12316;50.904;4.200;2022-12-18T02:16:38;-3.40;99.90
24158;DHT22;12316;50.904;4.200;2022-12-18T02:21:57;-3.40;99.90
24158;DHT22;12316;50.904;4.200;2022-12-18T02:26:51;-3.30;99.90
24158;DHT22;12316;50.904;4.200;2022-12-18T02:29:26;-3.40;99.90
24158;DHT22;12316;50.904;4.200;2022-12-18T02:31:57;-3.40;99.90
24158;DHT22;12316;50.904;4.200;2022-12-18T02:34:28;-3.40;99.90
24158;DHT22;12316;50.904;4.200;2022-12-18T02:36:54;-3.40;99.90
24158;DHT22;12316;50.904;4.200;2022-12-18T02:39:21;-3.40;99.90
24158;DHT22;12316;50.904;4.200;2022-12-18T02:41:49;-3.50;99.90
24158;DHT22;12316;50.904;4.200;2022-12-18T02:44:15;-3.50;99.90
24158;DHT22;12316;50.904;4.200;2022-12-18T02:46:44;-3.50;99.90
24158;DHT22;12316;50.904;4.200;2022-12-18T02:52:29;-3.60;99.90
24158;DHT22;12316;50.904;4.200;2022-12-18T02:57:42;-3.60;99.90
24158;DHT22;12316;50.904;4.200;2022-12-18T03:00:24;-3.70;99.90
24158;DHT22;12316;50.904;4.200;2022-12-18T03:03:04;-3.70;99.90
24158;DHT22;12316;50.904;4.200;2022-12-18T03:05:50;-3.70;99.90
24158;DHT22;12316;50.904;4.200;2022-12-18T03:08:39;-3.70;99.90
24158;DHT22;12316;50.904;4.200;2022-12-18T03:11:10;-3.70;99.90
24158;DHT22;12316;50.904;4.200;2022-12-18T03:13:56;-3.70;99.90
24158;DHT22;12316;50.904;4.200;2022-12-18T03:16:27;-3.70;99.90
24158;DHT22;12316;50.904;4.200;2022-12-18T03:19:05;-3.70;99.90
24158;DHT22;12316;50.904;4.200;2022-12-18T03:21:43;-3.60;99.90
24158;DHT22;12316;50.904;4.200;2022-12-18T03:24:11;-3.60;99.90
24158;DHT22;12316;50.904;4.200;2022-12-18T03:26:40;-3.50;99.90
24158;DHT22;12316;50.904;4.200;2022-12-18T03:29:16;-3.40;99.90
24158;DHT22;12316;50.904;4.200;2022-12-18T03:31:47;-3.40;99.90
24158;DHT22;12316;50.904;4.200;2022-12-18T03:34:19;-3.30;99.90
24158;DHT22;12316;50.904;4.200;2022-12-18T03:36:47;-3.30;99.90
24158;DHT22;12316;50.904;4.200;2022-12-18T03:39:13;-3.30;99.90
24158;DHT22;12316;50.904;4.200;2022-12-18T03:52:11;-3.20;99.90
24158;DHT22;12316;50.904;4.200;2022-12-18T03:54:40;-3.20;99.90
24158;DHT22;12316;50.904;4.200;2022-12-18T03:57:13;-3.20;99.90
24158;DHT22;12316;50.904;4.200;2022-12-18T03:59:41;-3.10;99.90
24158;DHT22;12316;50.904;4.200;2022-12-18T04:02:08;-3.10;99.90
24158;DHT22;12316;50.904;4.200;2022-12-18T04:04:38;-3.20;99.90
24158;DHT22;12316;50.904;4.200;2022-12-18T04:07:05;-3.20;99.90
24158;DHT22;12316;50.904;4.200;2022-12-18T04:09:33;-3.20;99.90
24158;DHT22;12316;50.904;4.200;2022-12-18T04:11:59;-3.30;99.90
24158;DHT22;12316;50.904;4.200;2022-12-18T04:14:25;-3.30;99.90
24158;DHT22;12316;50.904;4.200;2022-12-18T04:16:50;-3.30;99.90
24158;DHT22;12316;50.904;4.200;2022-12-18T04:19:16;-3.30;99.90
24158;DHT22;12316;50.904;4.200;2022-12-18T04:21:41;-3.40;99.90
24158;DHT22;12316;50.904;4.200;2022-12-18T04:24:07;-3.40;99.90
24158;DHT22;12316;50.904;4.200;2022-12-18T04:26:33;-3.50;99.90
24158;DHT22;12316;50.904;4.200;2022-12-18T04:28:59;-3.50;99.90
24158;DHT22;12316;50.904;4.200;2022-12-18T04:31:25;-3.50;99.90
24158;DHT22;12316;50.904;4.200;2022-12-18T04:33:51;-3.60;99.90
24158;DHT22;12316;50.904;4.200;2022-12-18T04:36:16;-3.60;99.90
24158;DHT22;12316;50.904;4.200;2022-12-18T04:38:42;-3.60;99.90
24158;DHT22;12316;50.904;4.200;2022-12-18T04:41:08;-3.70;99.90
24158;DHT22;12316;50.904;4.200;2022-12-18T04:43:35;-3.80;99.90
24158;DHT22;12316;50.904;4.200;2022-12-18T04:46:06;-3.70;99.90
24158;DHT22;12316;50.904;4.200;2022-12-18T04:48:32;-3.70;99.90
24158;DHT22;12316;50.904;4.200;2022-12-18T04:50:58;-3.80;99.90
24158;DHT22;12316;50.904;4.200;2022-12-18T04:53:24;-3.70;99.90
24158;DHT22;12316;50.904;4.200;2022-12-18T04:55:49;-3.80;99.90
24158;DHT22;12316;50.904;4.200;2022-12-18T04:58:15;-3.80;99.90
24158;DHT22;12316;50.904;4.200;2022-12-18T05:00:41;-3.80;99.90
24158;DHT22;12316;50.904;4.200;2022-12-18T05:03:07;-3.80;99.90
24158;DHT22;12316;50.904;4.200;2022-12-18T05:05:35;-3.80;99.90
24158;DHT22;12316;50.904;4.200;2022-12-18T05:08:00;-3.80;99.90
24158;DHT22;12316;50.904;4.200;2022-12-18T05:10:26;-3.80;99.90
24158;DHT22;12316;50.904;4.200;2022-12-18T05:12:51;-3.90;99.90
24158;DHT22;12316;50.904;4.200;2022-12-18T05:15:27;-3.90;99.90
24158;DHT22;12316;50.904;4.200;2022-12-18T05:17:52;-4.00;99.90
24158;DHT22;12316;50.904;4.200;2022-12-18T05:20:18;-3.90;99.90
24158;DHT22;12316;50.904;4.200;2022-12-18T05:22:44;-3.90;99.90
24158;DHT22;12316;50.904;4.200;2022-12-18T05:25:10;-3.90;99.90
24158;DHT22;12316;50.904;4.200;2022-12-18T05:27:35;-3.90;99.90
24158;DHT22;12316;50.904;4.200;2022-12-18T05:30:01;-3.80;99.90
24158;DHT22;12316;50.904;4.200;2022-12-18T05:32:26;-3.80;99.90
24158;DHT22;12316;50.904;4.200;2022-12-18T05:34:52;-3.70;99.90
24158;DHT22;12316;50.904;4.200;2022-12-18T05:37:18;-3.60;99.90
24158;DHT22;12316;50.904;4.200;2022-12-18T05:39:44;-3.50;99.90
24158;DHT22;12316;50.904;4.200;2022-12-18T05:42:09;-3.40;99.90
24158;DHT22;12316;50.904;4.200;2022-12-18T05:44:35;-3.30;99.90
24158;DHT22;12316;50.904;4.200;2022-12-18T05:47:00;-3.30;99.90
24158;DHT22;12316;50.904;4.200;2022-12-18T05:49:26;-3.20;99.90
24158;DHT22;12316;50.904;4.200;2022-12-18T05:51:52;-3.10;99.90
24158;DHT22;12316;50.904;4.200;2022-12-18T05:54:17;-3.10;99.90
24158;DHT22;12316;50.904;4.200;2022-12-18T05:56:43;-3.00;99.90
24158;DHT22;12316;50.904;4.200;2022-12-18T05:59:09;-2.90;99.90
24158;DHT22;12316;50.904;4.200;2022-12-18T06:01:35;-3.00;99.90
24158;DHT22;12316;50.904;4.200;2022-12-18T06:04:00;-3.00;99.90
24158;DHT22;12316;50.904;4.200;2022-12-18T06:06:27;-3.00;99.90
24158;DHT22;12316;50.904;4.200;2022-12-18T06:08:54;-3.10;99.90
24158;DHT22;12316;50.904;4.200;2022-12-18T06:11:25;-3.10;99.90
24158;DHT22;12316;50.904;4.200;2022-12-18T06:13:52;-3.00;99.90
24158;DHT22;12316;50.904;4.200;2022-12-18T06:16:18;-3.10;99.90
24158;DHT22;12316;50.904;4.200;2022-12-18T06:18:45;-3.10;99.90
24158;DHT22;12316;50.904;4.200;2022-12-18T06:21:12;-3.10;99.90
24158;DHT22;12316;50.904;4.200;2022-12-18T06:23:38;-3.10;99.90
24158;DHT22;12316;50.904;4.200;2022-12-18T06:26:08;-3.10;99.90
24158;DHT22;12316;50.904;4.200;2022-12-18T06:28:34;-3.10;99.90
24158;DHT22;12316;50.904;4.200;2022-12-18T06:31:00;-3.10;99.90
24158;DHT22;12316;50.904;4.200;2022-12-18T06:33:27;-3.20;99.90
24158;DHT22;12316;50.904;4.200;2022-12-18T06:35:53;-3.20;99.90
24158;DHT22;12316;50.904;4.200;2022-12-18T06:38:19;-3.20;99.90
24158;DHT22;12316;50.904;4.200;2022-12-18T06:40:45;-3.20;99.90
24158;DHT22;12316;50.904;4.200;2022-12-18T06:43:10;-3.20;99.90
24158;DHT22;12316;50.904;4.200;2022-12-18T06:45:36;-3.20;99.90
24158;DHT22;12316;50.904;4.200;2022-12-18T06:48:02;-3.10;99.90
24158;DHT22;12316;50.904;4.200;2022-12-18T06:50:27;-3.20;99.90
24158;DHT22;12316;50.904;4.200;2022-12-18T06:52:53;-3.10;99.90
24158;DHT22;12316;50.904;4.200;2022-12-18T06:55:19;-3.10;99.90
24158;DHT22;12316;50.904;4.200;2022-12-18T06:57:44;-3.10;99.90
24158;DHT22;12316;50.904;4.200;2022-12-18T07:00:11;-3.10;99.90
24158;DHT22;12316;50.904;4.200;2022-12-18T07:02:36;-3.00;99.90
24158;DHT22;12316;50.904;4.200;2022-12-18T07:05:02;-3.00;99.90
24158;DHT22;12316;50.904;4.200;2022-12-18T07:07:28;-2.90;99.90
24158;DHT22;12316;50.904;4.200;2022-12-18T07:09:54;-2.90;99.90
24158;DHT22;12316;50.904;4.200;2022-12-18T07:12:19;-2.90;99.90
24158;DHT22;12316;50.904;4.200;2022-12-18T07:14:45;-2.90;99.90
24158;DHT22;12316;50.904;4.200;2022-12-18T07:17:11;-2.90;99.90
24158;DHT22;12316;50.904;4.200;2022-12-18T07:19:36;-2.90;99.90
24158;DHT22;12316;50.904;4.200;2022-12-18T07:22:02;-2.80;99.90
24158;DHT22;12316;50.904;4.200;2022-12-18T07:24:28;-2.80;99.90
24158;DHT22;12316;50.904;4.200;2022-12-18T07:26:54;-2.70;99.90
24158;DHT22;12316;50.904;4.200;2022-12-18T07:29:19;-2.80;99.90
24158;DHT22;12316;50.904;4.200;2022-12-18T07:31:46;-2.80;99.90
24158;DHT22;12316;50.904;4.200;2022-12-18T07:34:13;-2.90;99.90
24158;DHT22;12316;50.904;4.200;2022-12-18T07:36:39;-2.90;99.90
24158;DHT22;12316;50.904;4.200;2022-12-18T07:39:04;-2.90;99.90
24158;DHT22;12316;50.904;4.200;2022-12-18T07:41:30;-2.90;99.90
24158;DHT22;12316;50.904;4.200;2022-12-18T07:43:56;-2.90;99.90
24158;DHT22;12316;50.904;4.200;2022-12-18T07:46:22;-2.90;99.90
24158;DHT22;12316;50.904;4.200;2022-12-18T07:48:48;-2.90;99.90
24158;DHT22;12316;50.904;4.200;2022-12-18T07:51:14;-2.90;99.90
24158;DHT22;12316;50.904;4.200;2022-12-18T07:53:40;-3.00;99.90
24158;DHT22;12316;50.904;4.200;2022-12-18T07:56:08;-2.90;99.90
24158;DHT22;12316;50.904;4.200;2022-12-18T07:58:34;-2.90;99.90
24158;DHT22;12316;50.904;4.200;2022-12-18T08:01:08;-2.80;99.90
24158;DHT22;12316;50.904;4.200;2022-12-18T08:03:35;-2.80;99.90
24158;DHT22;12316;50.904;4.200;2022-12-18T08:06:02;-2.90;99.90
24158;DHT22;12316;50.904;4.200;2022-12-18T08:08:28;-2.90;99.90
24158;DHT22;12316;50.904;4.200;2022-12-18T08:10:56;-2.80;99.90
24158;DHT22;12316;50.904;4.200;2022-12-18T08:13:22;-2.80;99.90
24158;DHT22;12316;50.904;4.200;2022-12-18T08:15:58;-2.80;99.90
24158;DHT22;12316;50.904;4.200;2022-12-18T08:18:24;-2.70;99.90
24158;DHT22;12316;50.904;4.200;2022-12-18T08:20:50;-2.70;99.90
24158;DHT22;12316;50.904;4.200;2022-12-18T08:23:15;-2.60;99.90
24158;DHT22;12316;50.904;4.200;2022-12-18T08:25:41;-2.40;99.90
24158;DHT22;12316;50.904;4.200;2022-12-18T08:28:07;-2.30;99.90
24158;DHT22;12316;50.904;4.200;2022-12-18T08:30:32;-2.10;99.90
24158;DHT22;12316;50.904;4.200;2022-12-18T08:32:58;-2.00;99.90
24158;DHT22;12316;50.904;4.200;2022-12-18T08:35:24;-1.80;99.90
24158;DHT22;12316;50.904;4.200;2022-12-18T08:37:49;-1.70;99.90
24158;DHT22;12316;50.904;4.200;2022-12-18T08:40:15;-1.60;99.90
24158;DHT22;12316;50.904;4.200;2022-12-18T08:42:41;-1.60;99.90
24158;DHT22;12316;50.904;4.200;2022-12-18T08:45:25;-1.50;99.90
24158;DHT22;12316;50.904;4.200;2022-12-18T08:47:51;-1.40;99.90
24158;DHT22;12316;50.904;4.200;2022-12-18T08:50:17;-1.40;99.90
24158;DHT22;12316;50.904;4.200;2022-12-18T08:52:43;-1.40;99.90
24158;DHT22;12316;50.904;4.200;2022-12-18T08:55:09;-1.30;99.90
24158;DHT22;12316;50.904;4.200;2022-12-18T08:57:35;-1.10;99.90
24158;DHT22;12316;50.904;4.200;2022-12-18T09:00:01;-1.00;99.90
24158;DHT22;12316;50.904;4.200;2022-12-18T09:02:26;-0.80;99.90
24158;DHT22;12316;50.904;4.200;2022-12-18T09:04:52;-0.60;99.90
24158;DHT22;12316;50.904;4.200;2022-12-18T09:07:17;-0.40;99.90
24158;DHT22;12316;50.904;4.200;2022-12-18T09:09:43;-0.30;99.90
24158;DHT22;12316;50.904;4.200;2022-12-18T09:12:09;-0.10;99.90
24158;DHT22;12316;50.904;4.200;2022-12-18T09:14:35;-0.10;99.90
24158;DHT22;12316;50.904;4.200;2022-12-18T09:17:01;0.00;99.90
24158;DHT22;12316;50.904;4.200;2022-12-18T09:19:27;-0.10;99.90
24158;DHT22;12316;50.904;4.200;2022-12-18T09:21:52;0.00;99.90
24158;DHT22;12316;50.904;4.200;2022-12-18T09:24:18;0.10;99.90
24158;DHT22;12316;50.904;4.200;2022-12-18T09:26:44;0.10;99.90
24158;DHT22;12316;50.904;4.200;2022-12-18T09:29:09;0.10;99.90
24158;DHT22;12316;50.904;4.200;2022-12-18T09:31:36;0.20;99.90
24158;DHT22;12316;50.904;4.200;2022-12-18T09:34:01;0.20;99.90
24158;DHT22;12316;50.904;4.200;2022-12-18T09:36:27;0.30;99.90
24158;DHT22;12316;50.904;4.200;2022-12-18T09:38:52;0.50;99.90
24158;DHT22;12316;50.904;4.200;2022-12-18T09:46:42;0.70;99.90
24158;DHT22;12316;50.904;4.200;2022-12-18T09:49:14;0.80;99.90
24158;DHT22;12316;50.904;4.200;2022-12-18T09:51:52;0.90;99.90
24158;DHT22;12316;50.904;4.200;2022-12-18T09:54:26;1.00;99.90
24158;DHT22;12316;50.904;4.200;2022-12-18T09:56:57;1.10;99.90
24158;DHT22;12316;50.904;4.200;2022-12-18T09:59:26;1.10;99.90
24158;DHT22;12316;50.904;4.200;2022-12-18T10:01:54;1.10;99.90
24158;DHT22;12316;50.904;4.200;2022-12-18T10:04:20;1.10;99.90
24158;DHT22;12316;50.904;4.200;2022-12-18T10:07:06;1.10;99.90
24158;DHT22;12316;50.904;4.200;2022-12-18T10:09:43;1.20;99.90
24158;DHT22;12316;50.904;4.200;2022-12-18T10:12:32;1.30;99.90
24158;DHT22;12316;50.904;4.200;2022-12-18T10:18:02;1.30;99.90
24158;DHT22;12316;50.904;4.200;2022-12-18T10:20:35;1.50;99.90
24158;DHT22;12316;50.904;4.200;2022-12-18T10:23:39;1.60;99.90
24158;DHT22;12316;50.904;4.200;2022-12-18T10:26:11;1.60;99.90
24158;DHT22;12316;50.904;4.200;2022-12-18T10:28:39;1.80;99.90
24158;DHT22;12316;50.904;4.200;2022-12-18T10:31:18;1.90;99.90
24158;DHT22;12316;50.904;4.200;2022-12-18T10:33:44;1.90;99.90
24158;DHT22;12316;50.904;4.200;2022-12-18T10:36:11;2.00;99.90
24158;DHT22;12316;50.904;4.200;2022-12-18T10:38:37;2.10;99.90
24158;DHT22;12316;50.904;4.200;2022-12-18T10:43:39;2.10;99.90
24158;DHT22;12316;50.904;4.200;2022-12-18T10:51:34;2.30;99.90
24158;DHT22;12316;50.904;4.200;2022-12-18T10:54:06;2.50;99.90
24158;DHT22;12316;50.904;4.200;2022-12-18T10:56:38;2.60;99.90
24158;DHT22;12316;50.904;4.200;2022-12-18T10:59:07;2.70;99.90
24158;DHT22;12316;50.904;4.200;2022-12-18T11:01:50;2.80;99.90
24158;DHT22;12316;50.904;4.200;2022-12-18T11:04:22;2.80;99.90
24158;DHT22;12316;50.904;4.200;2022-12-18T11:07:06;2.90;99.90
24158;DHT22;12316;50.904;4.200;2022-12-18T11:09:34;2.90;99.90
24158;DHT22;12316;50.904;4.200;2022-12-18T11:12:03;2.90;99.90
24158;DHT22;12316;50.904;4.200;2022-12-18T11:14:34;2.90;99.90
24158;DHT22;12316;50.904;4.200;2022-12-18T11:17:00;3.00;99.90
24158;DHT22;12316;50.904;4.200;2022-12-18T11:19:34;3.00;99.90
24158;DHT22;12316;50.904;4.200;2022-12-18T11:22:02;3.00;99.90
24158;DHT22;12316;50.904;4.200;2022-12-18T11:24:32;3.00;99.90
24158;DHT22;12316;50.904;4.200;2022-12-18T11:27:03;3.00;99.90
24158;DHT22;12316;50.904;4.200;2022-12-18T11:29:38;3.00;99.90
24158;DHT22;12316;50.904;4.200;2022-12-18T11:34:50;3.10;99.90
24158;DHT22;12316;50.904;4.200;2022-12-18T11:37:18;3.10;99.90
24158;DHT22;12316;50.904;4.200;2022-12-18T11:39:57;3.20;99.90
24158;DHT22;12316;50.904;4.200;2022-12-18T11:43:17;3.20;99.90
24158;DHT22;12316;50.904;4.200;2022-12-18T11:48:45;3.30;99.90
24158;DHT22;12316;50.904;4.200;2022-12-18T11:51:50;3.30;99.90
24158;DHT22;12316;50.904;4.200;2022-12-18T11:54:17;3.40;99.90
24158;DHT22;12316;50.904;4.200;2022-12-18T11:56:51;3.50;99.90
24158;DHT22;12316;50.904;4.200;2022-12-18T12:20:02;3.90;99.90
24158;DHT22;12316;50.904;4.200;2022-12-18T12:22:39;3.90;99.90
24158;DHT22;12316;50.904;4.200;2022-12-18T12:36:38;4.10;99.90
24158;DHT22;12316;50.904;4.200;2022-12-18T12:39:08;4.00;99.90
24158;DHT22;12316;50.904;4.200;2022-12-18T12:41:37;3.90;99.90
24158;DHT22;12316;50.904;4.200;2022-12-18T12:44:32;4.00;99.90
24158;DHT22;12316;50.904;4.200;2022-12-18T12:47:02;4.00;99.90
24158;DHT22;12316;50.904;4.200;2022-12-18T12:49:31;4.00;99.90
24158;DHT22;12316;50.904;4.200;2022-12-18T12:52:06;4.00;99.90
24158;DHT22;12316;50.904;4.200;2022-12-18T12:54:33;4.00;99.90
24158;DHT22;12316;50.904;4.200;2022-12-18T12:59:40;4.00;99.90
24158;DHT22;12316;50.904;4.200;2022-12-18T13:02:15;4.00;99.90
24158;DHT22;12316;50.904;4.200;2022-12-18T13:08:03;4.00;99.90
24158;DHT22;12316;50.904;4.200;2022-12-18T13:10:34;4.00;99.90
24158;DHT22;12316;50.904;4.200;2022-12-18T13:13:06;3.90;99.90
24158;DHT22;12316;50.904;4.200;2022-12-18T13:15:50;4.00;99.90
24158;DHT22;12316;50.904;4.200;2022-12-18T13:18:28;3.90;99.90
24158;DHT22;12316;50.904;4.200;2022-12-18T13:34:22;3.90;99.90
24158;DHT22;12316;50.904;4.200;2022-12-18T13:36:49;3.80;99.90
24158;DHT22;12316;50.904;4.200;2022-12-18T13:41:45;3.80;99.90
24158;DHT22;12316;50.904;4.200;2022-12-18T13:44:33;3.70;99.90
24158;DHT22;12316;50.904;4.200;2022-12-18T13:47:01;3.70;99.90
24158;DHT22;12316;50.904;4.200;2022-12-18T13:49:41;3.50;99.90
24158;DHT22;12316;50.904;4.200;2022-12-18T13:52:37;3.40;99.90
24158;DHT22;12316;50.904;4.200;2022-12-18T13:55:07;3.40;99.90
24158;DHT22;12316;50.904;4.200;2022-12-18T13:57:38;3.40;99.90
24158;DHT22;12316;50.904;4.200;2022-12-18T14:02:48;3.50;99.90
24158;DHT22;12316;50.904;4.200;2022-12-18T14:07:49;3.40;99.90
24158;DHT22;12316;50.904;4.200;2022-12-18T14:10:15;3.40;99.90
24158;DHT22;12316;50.904;4.200;2022-12-18T14:12:45;3.40;99.90
24158;DHT22;12316;50.904;4.200;2022-12-18T14:15:44;3.40;99.90
24158;DHT22;12316;50.904;4.200;2022-12-18T14:18:57;3.40;99.90
24158;DHT22;12316;50.904;4.200;2022-12-18T14:21:04;3.40;99.90
24158;DHT22;12316;50.904;4.200;2022-12-18T14:23:41;3.40;99.90
24158;DHT22;12316;50.904;4.200;2022-12-18T14:26:26;3.30;99.90
24158;DHT22;12316;50.904;4.200;2022-12-18T14:28:58;3.30;99.90
24158;DHT22;12316;50.904;4.200;2022-12-18T14:31:28;3.40;99.90
24158;DHT22;12316;50.904;4.200;2022-12-18T14:33:55;3.30;99.90
24158;DHT22;12316;50.904;4.200;2022-12-18T14:36:26;3.30;99.90
24158;DHT22;12316;50.904;4.200;2022-12-18T14:38:54;3.30;99.90
24158;DHT22;12316;50.904;4.200;2022-12-18T14:41:21;3.30;99.90
24158;DHT22;12316;50.904;4.200;2022-12-18T14:43:49;3.30;99.90
24158;DHT22;12316;50.904;4.200;2022-12-18T14:46:29;3.30;99.90
24158;DHT22;12316;50.904;4.200;2022-12-18T14:48:55;3.30;99.90
24158;DHT22;12316;50.904;4.200;2022-12-18T14:51:24;3.30;99.90
24158;DHT22;12316;50.904;4.200;2022-12-18T14:54:02;3.30;99.90
24158;DHT22;12316;50.904;4.200;2022-12-18T14:56:34;3.30;99.90
24158;DHT22;12316;50.904;4.200;2022-12-18T15:04:40;3.20;99.90
24158;DHT22;12316;50.904;4.200;2022-12-18T15:10:28;3.30;99.90
24158;DHT22;12316;50.904;4.200;2022-12-18T15:12:41;3.20;99.90
24158;DHT22;12316;50.904;4.200;2022-12-18T15:28:24;3.10;99.90
24158;DHT22;12316;50.904;4.200;2022-12-18T15:36:20;3.10;99.90
24158;DHT22;12316;50.904;4.200;2022-12-18T15:38:47;3.20;99.90
24158;DHT22;12316;50.904;4.200;2022-12-18T15:41:15;3.10;99.90
24158;DHT22;12316;50.904;4.200;2022-12-18T15:43:41;3.10;99.90
24158;DHT22;12316;50.904;4.200;2022-12-18T15:46:14;3.00;99.90
24158;DHT22;12316;50.904;4.200;2022-12-18T15:48:52;3.10;99.90
24158;DHT22;12316;50.904;4.200;2022-12-18T15:51:19;3.10;99.90
24158;DHT22;12316;50.904;4.200;2022-12-18T15:53:50;3.10;99.90
24158;DHT22;12316;50.904;4.200;2022-12-18T15:56:16;3.10;99.90
24158;DHT22;12316;50.904;4.200;2022-12-18T15:59:01;3.10;99.90
24158;DHT22;12316;50.904;4.200;2022-12-18T16:01:29;3.10;99.90
24158;DHT22;12316;50.904;4.200;2022-12-18T16:03:56;3.10;99.90
24158;DHT22;12316;50.904;4.200;2022-12-18T16:06:22;3.20;99.90
24158;DHT22;12316;50.904;4.200;2022-12-18T16:08:48;3.20;99.90
24158;DHT22;12316;50.904;4.200;2022-12-18T16:11:26;3.20;99.90
24158;DHT22;12316;50.904;4.200;2022-12-18T16:14:25;3.20;99.90
24158;DHT22;12316;50.904;4.200;2022-12-18T16:16:59;3.30;99.90
24158;DHT22;12316;50.904;4.200;2022-12-18T16:19:26;3.30;99.90
24158;DHT22;12316;50.904;4.200;2022-12-18T16:21:54;3.20;99.90
24158;DHT22;12316;50.904;4.200;2022-12-18T16:24:25;3.20;99.90
24158;DHT22;12316;50.904;4.200;2022-12-18T16:26:52;3.30;99.90
24158;DHT22;12316;50.904;4.200;2022-12-18T16:29:19;3.30;99.90
24158;DHT22;12316;50.904;4.200;2022-12-18T16:31:50;3.30;99.90
24158;DHT22;12316;50.904;4.200;2022-12-18T16:34:28;3.30;99.90
24158;DHT22;12316;50.904;4.200;2022-12-18T16:36:56;3.30;99.90
24158;DHT22;12316;50.904;4.200;2022-12-18T16:39:22;3.30;99.90
24158;DHT22;12316;50.904;4.200;2022-12-18T16:41:48;3.40;99.90
24158;DHT22;12316;50.904;4.200;2022-12-18T16:44:21;3.40;99.90
24158;DHT22;12316;50.904;4.200;2022-12-18T16:46:46;3.40;99.90
24158;DHT22;12316;50.904;4.200;2022-12-18T16:49:13;3.40;99.90
24158;DHT22;12316;50.904;4.200;2022-12-18T16:51:39;3.40;99.90
24158;DHT22;12316;50.904;4.200;2022-12-18T16:54:05;3.40;99.90
24158;DHT22;12316;50.904;4.200;2022-12-18T16:56:31;3.40;99.90
24158;DHT22;12316;50.904;4.200;2022-12-18T16:58:58;3.40;99.90
24158;DHT22;12316;50.904;4.200;2022-12-18T17:01:25;3.40;99.90
24158;DHT22;12316;50.904;4.200;2022-12-18T17:03:56;3.40;99.90
24158;DHT22;12316;50.904;4.200;2022-12-18T17:06:24;3.50;99.90
24158;DHT22;12316;50.904;4.200;2022-12-18T17:09:01;3.50;99.90
24158;DHT22;12316;50.904;4.200;2022-12-18T17:11:29;3.50;99.90
24158;DHT22;12316;50.904;4.200;2022-12-18T17:13:54;3.50;99.90
24158;DHT22;12316;50.904;4.200;2022-12-18T17:16:20;3.50;99.90
24158;DHT22;12316;50.904;4.200;2022-12-18T17:18:46;3.40;99.90
24158;DHT22;12316;50.904;4.200;2022-12-18T17:21:12;3.50;99.90
24158;DHT22;12316;50.904;4.200;2022-12-18T17:23:40;3.50;99.90
24158;DHT22;12316;50.904;4.200;2022-12-18T17:26:06;3.40;99.90
24158;DHT22;12316;50.904;4.200;2022-12-18T17:28:33;3.40;99.90
24158;DHT22;12316;50.904;4.200;2022-12-18T17:31:00;3.50;99.90
24158;DHT22;12316;50.904;4.200;2022-12-18T17:33:25;3.50;99.90
24158;DHT22;12316;50.904;4.200;2022-12-18T17:35:51;3.50;99.90
24158;DHT22;12316;50.904;4.200;2022-12-18T17:38:17;3.50;99.90
24158;DHT22;12316;50.904;4.200;2022-12-18T17:40:43;3.50;99.90
24158;DHT22;12316;50.904;4.200;2022-12-18T17:43:10;3.50;99.90
24158;DHT22;12316;50.904;4.200;2022-12-18T17:45:39;3.50;99.90
24158;DHT22;12316;50.904;4.200;2022-12-18T17:48:05;3.60;99.90
24158;DHT22;12316;50.904;4.200;2022-12-18T17:50:32;3.60;99.90
24158;DHT22;12316;50.904;4.200;2022-12-18T17:52:59;3.60;99.90
24158;DHT22;12316;50.904;4.200;2022-12-18T17:55:25;3.60;99.90
24158;DHT22;12316;50.904;4.200;2022-12-18T17:57:51;3.60;99.90
24158;DHT22;12316;50.904;4.200;2022-12-18T18:00:17;3.60;99.90
24158;DHT22;12316;50.904;4.200;2022-12-18T18:02:43;3.50;99.90
24158;DHT22;12316;50.904;4.200;2022-12-18T18:05:09;3.50;99.90
24158;DHT22;12316;50.904;4.200;2022-12-18T18:07:36;3.40;99.90